sensor_id;sensor_type;location;lat;lon;timestamp;P1;durP1;ratioP1;P2;durP2;ratioP2
40863;SDS011;26582;47.524;19.012;2024-03-08T00:00:04;26.48;;;13.00;;
40863;SDS011;26582;47.524;19.012;2024-03-08T00:02:37;24.25;;;12.18;;
40863;SDS011;26582;47.524;19.012;2024-03-08T00:05:03;25.95;;;12.82;;
40863;SDS011;26582;47.524;19.012;2024-03-08T00:07:31;24.88;;;13.13;;
40863;SDS011;26582;47.524;19.012;2024-03-08T00:09:57;22.02;;;12.25;;
40863;SDS011;26582;47.524;19.012;2024-03-08T00:12:25;23.48;;;12.73;;
40863;SDS011;26582;47.524;19.012;2024-03-08T00:14:52;24.52;;;13.45;;
40863;SDS011;26582;47.524;19.012;2024-03-08T00:17:19;27.90;;;12.57;;
40863;SDS011;26582;47.524;19.012;2024-03-08T00:19:47;25.95;;;12.88;;
40863;SDS011;26582;47.524;19.012;2024-03-08T00:22:15;22.05;;;12.15;;
40863;SDS011;26582;47.524;19.012;2024-03-08T00:24:41;22.17;;;11.85;;
40863;SDS011;26582;47.524;19.012;2024-03-08T00:27:08;23.42;;;13.15;;
40863;SDS011;26582;47.524;19.012;2024-03-08T00:29:36;24.15;;;13.27;;
40863;SDS011;26582;47.524;19.012;2024-03-08T00:32:03;23.73;;;12.80;;
40863;SDS011;26582;47.524;19.012;2024-03-08T00:34:30;26.88;;;13.38;;
40863;SDS011;26582;47.524;19.012;2024-03-08T00:36:57;25.60;;;13.15;;
40863;SDS011;26582;47.524;19.012;2024-03-08T00:39:24;23.25;;;12.98;;
40863;SDS011;26582;47.524;19.012;2024-03-08T00:41:51;29.25;;;13.27;;
40863;SDS011;26582;47.524;19.012;2024-03-08T00:44:17;23.48;;;12.27;;
40863;SDS011;26582;47.524;19.012;2024-03-08T00:46:46;26.95;;;14.45;;
40863;SDS011;26582;47.524;19.012;2024-03-08T00:49:12;29.20;;;13.75;;
40863;SDS011;26582;47.524;19.012;2024-03-08T00:51:39;25.48;;;13.52;;
40863;SDS011;26582;47.524;19.012;2024-03-08T00:54:06;28.08;;;14.60;;
40863;SDS011;26582;47.524;19.012;2024-03-08T00:56:32;26.10;;;12.63;;
40863;SDS011;26582;47.524;19.012;2024-03-08T00:59:00;28.85;;;13.55;;
40863;SDS011;26582;47.524;19.012;2024-03-08T01:01:27;27.42;;;13.93;;
40863;SDS011;26582;47.524;19.012;2024-03-08T01:03:56;24.73;;;13.27;;
40863;SDS011;26582;47.524;19.012;2024-03-08T01:06:23;24.63;;;12.97;;
40863;SDS011;26582;47.524;19.012;2024-03-08T01:08:50;25.63;;;13.02;;
40863;SDS011;26582;47.524;19.012;2024-03-08T01:11:18;26.42;;;13.65;;
40863;SDS011;26582;47.524;19.012;2024-03-08T01:13:44;27.10;;;14.00;;
40863;SDS011;26582;47.524;19.012;2024-03-08T01:16:12;24.23;;;12.52;;
40863;SDS011;26582;47.524;19.012;2024-03-08T01:18:39;27.33;;;13.95;;
40863;SDS011;26582;47.524;19.012;2024-03-08T01:21:07;28.17;;;14.13;;
40863;SDS011;26582;47.524;19.012;2024-03-08T01:23:33;28.42;;;14.82;;
40863;SDS011;26582;47.524;19.012;2024-03-08T01:26:00;27.00;;;14.25;;
40863;SDS011;26582;47.524;19.012;2024-03-08T01:28:27;30.02;;;14.93;;
40863;SDS011;26582;47.524;19.012;2024-03-08T01:30:54;29.90;;;14.63;;
40863;SDS011;26582;47.524;19.012;2024-03-08T01:33:22;30.33;;;15.23;;
40863;SDS011;26582;47.524;19.012;2024-03-08T01:35:49;27.02;;;14.77;;
40863;SDS011;26582;47.524;19.012;2024-03-08T01:38:17;27.98;;;14.57;;
40863;SDS011;26582;47.524;19.012;2024-03-08T01:40:44;26.10;;;12.80;;
40863;SDS011;26582;47.524;19.012;2024-03-08T01:43:19;27.58;;;13.95;;
40863;SDS011;26582;47.524;19.012;2024-03-08T01:45:47;30.52;;;14.93;;
40863;SDS011;26582;47.524;19.012;2024-03-08T01:48:14;27.08;;;14.10;;
40863;SDS011;26582;47.524;19.012;2024-03-08T01:50:41;34.50;;;15.70;;
40863;SDS011;26582;47.524;19.012;2024-03-08T01:53:08;30.98;;;14.50;;
40863;SDS011;26582;47.524;19.012;2024-03-08T01:55:38;31.73;;;15.32;;
40863;SDS011;26582;47.524;19.012;2024-03-08T01:58:05;33.58;;;16.63;;
40863;SDS011;26582;47.524;19.012;2024-03-08T02:00:33;29.77;;;15.60;;
40863;SDS011;26582;47.524;19.012;2024-03-08T02:03:01;30.95;;;15.07;;
40863;SDS011;26582;47.524;19.012;2024-03-08T02:05:29;34.08;;;15.68;;
40863;SDS011;26582;47.524;19.012;2024-03-08T02:07:56;33.22;;;15.52;;
40863;SDS011;26582;47.524;19.012;2024-03-08T02:10:23;32.70;;;15.13;;
40863;SDS011;26582;47.524;19.012;2024-03-08T02:13:09;30.42;;;14.68;;
40863;SDS011;26582;47.524;19.012;2024-03-08T02:15:49;35.75;;;15.95;;
40863;SDS011;26582;47.524;19.012;2024-03-08T02:18:17;33.90;;;15.80;;
40863;SDS011;26582;47.524;19.012;2024-03-08T02:20:46;32.88;;;15.50;;
40863;SDS011;26582;47.524;19.012;2024-03-08T02:23:13;31.10;;;15.45;;
40863;SDS011;26582;47.524;19.012;2024-03-08T02:25:40;32.15;;;15.27;;
40863;SDS011;26582;47.524;19.012;2024-03-08T02:28:08;30.98;;;15.68;;
40863;SDS011;26582;47.524;19.012;2024-03-08T02:30:36;30.60;;;15.48;;
40863;SDS011;26582;47.524;19.012;2024-03-08T02:33:03;31.98;;;15.20;;
40863;SDS011;26582;47.524;19.012;2024-03-08T02:35:30;32.47;;;16.17;;
40863;SDS011;26582;47.524;19.012;2024-03-08T02:37:58;33.15;;;15.48;;
40863;SDS011;26582;47.524;19.012;2024-03-08T02:40:25;32.42;;;15.85;;
40863;SDS011;26582;47.524;19.012;2024-03-08T02:42:52;29.88;;;14.90;;
40863;SDS011;26582;47.524;19.012;2024-03-08T02:45:18;34.58;;;16.15;;
40863;SDS011;26582;47.524;19.012;2024-03-08T02:47:45;34.10;;;16.35;;
40863;SDS011;26582;47.524;19.012;2024-03-08T02:50:14;34.07;;;15.60;;
40863;SDS011;26582;47.524;19.012;2024-03-08T02:52:44;34.08;;;15.93;;
40863;SDS011;26582;47.524;19.012;2024-03-08T02:55:13;37.67;;;18.02;;
40863;SDS011;26582;47.524;19.012;2024-03-08T03:00:09;37.05;;;17.13;;
40863;SDS011;26582;47.524;19.012;2024-03-08T03:02:36;36.22;;;17.50;;
40863;SDS011;26582;47.524;19.012;2024-03-08T03:05:03;40.88;;;18.20;;
40863;SDS011;26582;47.524;19.012;2024-03-08T03:07:31;42.90;;;18.75;;
40863;SDS011;26582;47.524;19.012;2024-03-08T03:09:58;40.78;;;18.95;;
40863;SDS011;26582;47.524;19.012;2024-03-08T03:12:26;42.42;;;18.20;;
40863;SDS011;26582;47.524;19.012;2024-03-08T03:14:53;41.78;;;18.90;;
40863;SDS011;26582;47.524;19.012;2024-03-08T03:17:21;37.22;;;18.55;;
40863;SDS011;26582;47.524;19.012;2024-03-08T03:19:48;39.60;;;18.30;;
40863;SDS011;26582;47.524;19.012;2024-03-08T03:22:15;37.83;;;18.05;;
40863;SDS011;26582;47.524;19.012;2024-03-08T03:24:42;43.30;;;18.95;;
40863;SDS011;26582;47.524;19.012;2024-03-08T03:27:08;43.58;;;19.75;;
40863;SDS011;26582;47.524;19.012;2024-03-08T03:29:38;41.28;;;19.17;;
40863;SDS011;26582;47.524;19.012;2024-03-08T03:32:05;47.70;;;20.17;;
40863;SDS011;26582;47.524;19.012;2024-03-08T03:34:33;46.78;;;20.38;;
40863;SDS011;26582;47.524;19.012;2024-03-08T03:37:01;45.05;;;19.63;;
40863;SDS011;26582;47.524;19.012;2024-03-08T03:39:28;46.72;;;20.00;;
40863;SDS011;26582;47.524;19.012;2024-03-08T03:41:56;50.63;;;21.03;;
40863;SDS011;26582;47.524;19.012;2024-03-08T03:44:23;45.58;;;20.27;;
40863;SDS011;26582;47.524;19.012;2024-03-08T03:46:51;41.00;;;18.77;;
40863;SDS011;26582;47.524;19.012;2024-03-08T03:49:18;41.17;;;18.25;;
40863;SDS011;26582;47.524;19.012;2024-03-08T03:51:45;48.80;;;19.83;;
40863;SDS011;26582;47.524;19.012;2024-03-08T03:54:12;52.40;;;20.85;;
40863;SDS011;26582;47.524;19.012;2024-03-08T03:56:39;46.35;;;20.83;;
40863;SDS011;26582;47.524;19.012;2024-03-08T03:59:05;46.03;;;20.15;;
40863;SDS011;26582;47.524;19.012;2024-03-08T04:01:32;46.30;;;19.65;;
40863;SDS011;26582;47.524;19.012;2024-03-08T04:04:00;46.72;;;19.77;;
40863;SDS011;26582;47.524;19.012;2024-03-08T04:06:27;45.35;;;20.73;;
40863;SDS011;26582;47.524;19.012;2024-03-08T04:08:54;49.30;;;20.05;;
40863;SDS011;26582;47.524;19.012;2024-03-08T04:11:21;47.08;;;19.48;;
40863;SDS011;26582;47.524;19.012;2024-03-08T04:13:48;46.97;;;20.65;;
40863;SDS011;26582;47.524;19.012;2024-03-08T04:16:14;47.53;;;20.48;;
40863;SDS011;26582;47.524;19.012;2024-03-08T04:18:41;44.90;;;20.45;;
40863;SDS011;26582;47.524;19.012;2024-03-08T04:21:10;47.25;;;20.25;;
40863;SDS011;26582;47.524;19.012;2024-03-08T04:23:36;49.60;;;20.65;;
40863;SDS011;26582;47.524;19.012;2024-03-08T04:26:03;47.20;;;20.90;;
40863;SDS011;26582;47.524;19.012;2024-03-08T04:28:31;43.30;;;19.67;;
40863;SDS011;26582;47.524;19.012;2024-03-08T04:30:58;42.92;;;19.55;;
40863;SDS011;26582;47.524;19.012;2024-03-08T04:33:25;49.30;;;20.50;;
40863;SDS011;26582;47.524;19.012;2024-03-08T04:35:53;42.95;;;20.85;;
40863;SDS011;26582;47.524;19.012;2024-03-08T04:38:21;51.42;;;20.80;;
40863;SDS011;26582;47.524;19.012;2024-03-08T04:40:48;53.67;;;22.38;;
40863;SDS011;26582;47.524;19.012;2024-03-08T04:43:15;47.05;;;21.30;;
40863;SDS011;26582;47.524;19.012;2024-03-08T04:45:43;41.60;;;18.60;;
40863;SDS011;26582;47.524;19.012;2024-03-08T04:48:10;48.22;;;20.50;;
40863;SDS011;26582;47.524;19.012;2024-03-08T04:50:37;49.42;;;21.10;;
40863;SDS011;26582;47.524;19.012;2024-03-08T04:53:05;47.95;;;20.30;;
40863;SDS011;26582;47.524;19.012;2024-03-08T04:55:34;47.08;;;19.60;;
40863;SDS011;26582;47.524;19.012;2024-03-08T04:58:02;44.05;;;19.92;;
40863;SDS011;26582;47.524;19.012;2024-03-08T05:00:31;46.70;;;20.63;;
40863;SDS011;26582;47.524;19.012;2024-03-08T05:02:57;46.35;;;20.52;;
40863;SDS011;26582;47.524;19.012;2024-03-08T05:05:24;48.13;;;20.27;;
40863;SDS011;26582;47.524;19.012;2024-03-08T05:07:51;49.42;;;20.65;;
40863;SDS011;26582;47.524;19.012;2024-03-08T05:10:18;45.58;;;20.85;;
40863;SDS011;26582;47.524;19.012;2024-03-08T05:12:46;44.95;;;20.92;;
40863;SDS011;26582;47.524;19.012;2024-03-08T05:15:13;47.38;;;21.50;;
40863;SDS011;26582;47.524;19.012;2024-03-08T05:17:40;45.78;;;19.30;;
40863;SDS011;26582;47.524;19.012;2024-03-08T05:20:07;46.47;;;20.55;;
40863;SDS011;26582;47.524;19.012;2024-03-08T05:22:37;49.85;;;21.95;;
40863;SDS011;26582;47.524;19.012;2024-03-08T05:25:05;47.17;;;20.88;;
40863;SDS011;26582;47.524;19.012;2024-03-08T05:27:33;48.08;;;20.30;;
40863;SDS011;26582;47.524;19.012;2024-03-08T05:30:01;44.92;;;20.33;;
40863;SDS011;26582;47.524;19.012;2024-03-08T05:32:29;50.80;;;20.65;;
40863;SDS011;26582;47.524;19.012;2024-03-08T05:34:55;49.10;;;23.17;;
40863;SDS011;26582;47.524;19.012;2024-03-08T05:37:23;51.58;;;22.77;;
40863;SDS011;26582;47.524;19.012;2024-03-08T05:39:49;51.70;;;22.00;;
40863;SDS011;26582;47.524;19.012;2024-03-08T05:42:16;50.97;;;20.45;;
40863;SDS011;26582;47.524;19.012;2024-03-08T05:44:43;47.60;;;19.85;;
40863;SDS011;26582;47.524;19.012;2024-03-08T05:47:11;49.10;;;20.10;;
40863;SDS011;26582;47.524;19.012;2024-03-08T05:49:37;48.90;;;20.75;;
40863;SDS011;26582;47.524;19.012;2024-03-08T05:52:04;46.28;;;20.10;;
40863;SDS011;26582;47.524;19.012;2024-03-08T05:54:31;48.10;;;21.15;;
40863;SDS011;26582;47.524;19.012;2024-03-08T05:56:58;44.05;;;20.65;;
40863;SDS011;26582;47.524;19.012;2024-03-08T05:59:25;44.65;;;21.48;;
40863;SDS011;26582;47.524;19.012;2024-03-08T06:01:52;49.95;;;21.77;;
40863;SDS011;26582;47.524;19.012;2024-03-08T06:04:20;45.28;;;21.20;;
40863;SDS011;26582;47.524;19.012;2024-03-08T06:06:46;42.95;;;19.88;;
40863;SDS011;26582;47.524;19.012;2024-03-08T06:09:13;44.95;;;20.00;;
40863;SDS011;26582;47.524;19.012;2024-03-08T06:11:41;43.15;;;20.52;;
40863;SDS011;26582;47.524;19.012;2024-03-08T06:14:08;49.10;;;22.30;;
40863;SDS011;26582;47.524;19.012;2024-03-08T06:16:35;47.00;;;20.27;;
40863;SDS011;26582;47.524;19.012;2024-03-08T06:19:03;47.60;;;21.75;;
40863;SDS011;26582;47.524;19.012;2024-03-08T06:21:32;48.38;;;20.55;;
40863;SDS011;26582;47.524;19.012;2024-03-08T06:23:58;45.35;;;20.98;;
40863;SDS011;26582;47.524;19.012;2024-03-08T06:26:25;49.25;;;20.40;;
40863;SDS011;26582;47.524;19.012;2024-03-08T06:28:53;47.78;;;21.05;;
40863;SDS011;26582;47.524;19.012;2024-03-08T06:31:20;51.05;;;21.75;;
40863;SDS011;26582;47.524;19.012;2024-03-08T06:33:47;42.17;;;19.40;;
40863;SDS011;26582;47.524;19.012;2024-03-08T06:36:15;48.25;;;20.83;;
40863;SDS011;26582;47.524;19.012;2024-03-08T06:38:46;42.25;;;19.15;;
40863;SDS011;26582;47.524;19.012;2024-03-08T06:41:12;44.60;;;20.52;;
40863;SDS011;26582;47.524;19.012;2024-03-08T06:43:41;48.00;;;20.98;;
40863;SDS011;26582;47.524;19.012;2024-03-08T06:46:08;49.13;;;20.17;;
40863;SDS011;26582;47.524;19.012;2024-03-08T06:48:35;47.03;;;20.77;;
40863;SDS011;26582;47.524;19.012;2024-03-08T06:51:02;47.25;;;21.30;;
40863;SDS011;26582;47.524;19.012;2024-03-08T06:53:30;44.75;;;19.20;;
40863;SDS011;26582;47.524;19.012;2024-03-08T06:55:58;49.80;;;21.63;;
40863;SDS011;26582;47.524;19.012;2024-03-08T06:58:25;49.00;;;21.40;;
40863;SDS011;26582;47.524;19.012;2024-03-08T07:00:51;49.17;;;22.35;;
40863;SDS011;26582;47.524;19.012;2024-03-08T07:03:18;52.42;;;22.50;;
40863;SDS011;26582;47.524;19.012;2024-03-08T07:05:47;55.83;;;23.50;;
40863;SDS011;26582;47.524;19.012;2024-03-08T07:08:14;47.92;;;20.23;;
40863;SDS011;26582;47.524;19.012;2024-03-08T07:10:41;50.97;;;21.52;;
40863;SDS011;26582;47.524;19.012;2024-03-08T07:13:11;53.80;;;22.40;;
40863;SDS011;26582;47.524;19.012;2024-03-08T07:15:38;44.15;;;20.08;;
40863;SDS011;26582;47.524;19.012;2024-03-08T07:18:05;47.03;;;21.02;;
40863;SDS011;26582;47.524;19.012;2024-03-08T07:20:34;52.65;;;22.05;;
40863;SDS011;26582;47.524;19.012;2024-03-08T07:23:02;48.95;;;21.13;;
40863;SDS011;26582;47.524;19.012;2024-03-08T07:25:29;47.13;;;20.23;;
40863;SDS011;26582;47.524;19.012;2024-03-08T07:27:56;47.00;;;20.63;;
40863;SDS011;26582;47.524;19.012;2024-03-08T07:30:24;47.53;;;21.27;;
40863;SDS011;26582;47.524;19.012;2024-03-08T07:33:09;44.53;;;20.75;;
40863;SDS011;26582;47.524;19.012;2024-03-08T07:35:38;46.38;;;21.42;;
40863;SDS011;26582;47.524;19.012;2024-03-08T07:38:05;47.00;;;20.27;;
40863;SDS011;26582;47.524;19.012;2024-03-08T07:40:35;46.45;;;20.88;;
40863;SDS011;26582;47.524;19.012;2024-03-08T07:43:03;51.17;;;21.65;;
40863;SDS011;26582;47.524;19.012;2024-03-08T07:45:31;50.55;;;21.35;;
40863;SDS011;26582;47.524;19.012;2024-03-08T07:47:58;45.58;;;21.38;;
40863;SDS011;26582;47.524;19.012;2024-03-08T07:50:25;48.40;;;21.35;;
40863;SDS011;26582;47.524;19.012;2024-03-08T07:52:51;63.60;;;30.20;;
40863;SDS011;26582;47.524;19.012;2024-03-08T07:55:18;49.20;;;23.23;;
40863;SDS011;26582;47.524;19.012;2024-03-08T07:57:45;80.75;;;33.95;;
40863;SDS011;26582;47.524;19.012;2024-03-08T08:00:13;50.38;;;22.17;;
40863;SDS011;26582;47.524;19.012;2024-03-08T08:02:44;51.40;;;23.50;;
40863;SDS011;26582;47.524;19.012;2024-03-08T08:05:11;57.37;;;23.90;;
40863;SDS011;26582;47.524;19.012;2024-03-08T08:07:38;50.88;;;23.52;;
40863;SDS011;26582;47.524;19.012;2024-03-08T08:10:09;51.85;;;22.60;;
40863;SDS011;26582;47.524;19.012;2024-03-08T08:12:42;54.88;;;22.30;;
40863;SDS011;26582;47.524;19.012;2024-03-08T08:15:08;52.67;;;21.52;;
40863;SDS011;26582;47.524;19.012;2024-03-08T08:17:35;50.60;;;21.65;;
40863;SDS011;26582;47.524;19.012;2024-03-08T08:20:04;55.22;;;22.80;;
40863;SDS011;26582;47.524;19.012;2024-03-08T08:22:31;54.85;;;22.45;;
40863;SDS011;26582;47.524;19.012;2024-03-08T08:24:58;53.58;;;22.75;;
40863;SDS011;26582;47.524;19.012;2024-03-08T08:27:25;50.20;;;23.48;;
40863;SDS011;26582;47.524;19.012;2024-03-08T08:29:52;49.75;;;22.70;;
40863;SDS011;26582;47.524;19.012;2024-03-08T08:32:19;51.15;;;21.65;;
40863;SDS011;26582;47.524;19.012;2024-03-08T08:34:45;52.38;;;20.83;;
40863;SDS011;26582;47.524;19.012;2024-03-08T08:37:14;55.55;;;22.80;;
40863;SDS011;26582;47.524;19.012;2024-03-08T08:39:41;56.83;;;24.02;;
40863;SDS011;26582;47.524;19.012;2024-03-08T08:42:08;57.90;;;23.55;;
40863;SDS011;26582;47.524;19.012;2024-03-08T08:44:36;53.05;;;22.15;;
40863;SDS011;26582;47.524;19.012;2024-03-08T08:47:03;52.08;;;22.55;;
40863;SDS011;26582;47.524;19.012;2024-03-08T08:49:29;58.03;;;24.35;;
40863;SDS011;26582;47.524;19.012;2024-03-08T08:51:56;56.45;;;23.63;;
40863;SDS011;26582;47.524;19.012;2024-03-08T08:54:25;59.25;;;23.20;;
40863;SDS011;26582;47.524;19.012;2024-03-08T08:56:52;75.17;;;30.33;;
40863;SDS011;26582;47.524;19.012;2024-03-08T08:59:19;58.17;;;23.95;;
40863;SDS011;26582;47.524;19.012;2024-03-08T09:01:48;51.88;;;21.35;;
40863;SDS011;26582;47.524;19.012;2024-03-08T09:04:15;68.20;;;23.20;;
40863;SDS011;26582;47.524;19.012;2024-03-08T09:06:42;52.55;;;22.83;;
40863;SDS011;26582;47.524;19.012;2024-03-08T09:09:10;54.00;;;23.17;;
40863;SDS011;26582;47.524;19.012;2024-03-08T09:11:40;55.80;;;22.10;;
40863;SDS011;26582;47.524;19.012;2024-03-08T09:14:07;57.37;;;22.00;;
40863;SDS011;26582;47.524;19.012;2024-03-08T09:16:34;52.85;;;22.23;;
40863;SDS011;26582;47.524;19.012;2024-03-08T09:19:02;49.28;;;21.80;;
40863;SDS011;26582;47.524;19.012;2024-03-08T09:21:28;57.92;;;22.10;;
40863;SDS011;26582;47.524;19.012;2024-03-08T09:23:56;53.85;;;23.25;;
40863;SDS011;26582;47.524;19.012;2024-03-08T09:26:23;51.97;;;23.15;;
40863;SDS011;26582;47.524;19.012;2024-03-08T09:28:52;55.42;;;23.35;;
40863;SDS011;26582;47.524;19.012;2024-03-08T09:31:19;55.53;;;23.50;;
40863;SDS011;26582;47.524;19.012;2024-03-08T09:33:46;51.30;;;21.58;;
40863;SDS011;26582;47.524;19.012;2024-03-08T09:36:13;54.55;;;21.55;;
40863;SDS011;26582;47.524;19.012;2024-03-08T09:38:40;56.78;;;23.13;;
40863;SDS011;26582;47.524;19.012;2024-03-08T09:41:07;56.60;;;24.25;;
40863;SDS011;26582;47.524;19.012;2024-03-08T09:43:35;57.85;;;23.05;;
40863;SDS011;26582;47.524;19.012;2024-03-08T09:46:04;56.33;;;23.92;;
40863;SDS011;26582;47.524;19.012;2024-03-08T09:48:33;64.63;;;24.80;;
40863;SDS011;26582;47.524;19.012;2024-03-08T09:51:01;57.42;;;24.63;;
40863;SDS011;26582;47.524;19.012;2024-03-08T09:53:28;58.72;;;24.10;;
40863;SDS011;26582;47.524;19.012;2024-03-08T09:55:55;56.95;;;22.80;;
40863;SDS011;26582;47.524;19.012;2024-03-08T09:58:21;50.75;;;22.95;;
40863;SDS011;26582;47.524;19.012;2024-03-08T10:01:17;59.30;;;24.85;;
40863;SDS011;26582;47.524;19.012;2024-03-08T10:03:44;54.22;;;22.60;;
40863;SDS011;26582;47.524;19.012;2024-03-08T10:06:13;59.30;;;24.73;;
40863;SDS011;26582;47.524;19.012;2024-03-08T10:08:40;56.95;;;23.73;;
40863;SDS011;26582;47.524;19.012;2024-03-08T10:11:06;57.75;;;22.92;;
40863;SDS011;26582;47.524;19.012;2024-03-08T10:13:33;58.60;;;23.77;;
40863;SDS011;26582;47.524;19.012;2024-03-08T10:16:01;61.45;;;23.67;;
40863;SDS011;26582;47.524;19.012;2024-03-08T10:18:29;57.67;;;24.08;;
40863;SDS011;26582;47.524;19.012;2024-03-08T10:21:03;57.50;;;24.02;;
40863;SDS011;26582;47.524;19.012;2024-03-08T10:23:30;56.05;;;24.13;;
40863;SDS011;26582;47.524;19.012;2024-03-08T10:26:08;56.25;;;24.90;;
40863;SDS011;26582;47.524;19.012;2024-03-08T10:28:36;54.55;;;22.75;;
40863;SDS011;26582;47.524;19.012;2024-03-08T10:31:03;63.85;;;25.17;;
40863;SDS011;26582;47.524;19.012;2024-03-08T10:33:32;57.22;;;24.58;;
40863;SDS011;26582;47.524;19.012;2024-03-08T10:35:59;58.67;;;23.65;;
40863;SDS011;26582;47.524;19.012;2024-03-08T10:38:28;67.47;;;24.35;;
40863;SDS011;26582;47.524;19.012;2024-03-08T10:41:00;58.95;;;25.15;;
40863;SDS011;26582;47.524;19.012;2024-03-08T10:43:28;63.67;;;24.58;;
40863;SDS011;26582;47.524;19.012;2024-03-08T10:46:19;57.80;;;23.13;;
40863;SDS011;26582;47.524;19.012;2024-03-08T10:48:58;52.17;;;23.23;;
40863;SDS011;26582;47.524;19.012;2024-03-08T10:51:30;51.65;;;22.98;;
40863;SDS011;26582;47.524;19.012;2024-03-08T10:53:58;56.15;;;23.90;;
40863;SDS011;26582;47.524;19.012;2024-03-08T10:56:28;50.40;;;23.30;;
40863;SDS011;26582;47.524;19.012;2024-03-08T10:58:55;52.63;;;22.55;;
40863;SDS011;26582;47.524;19.012;2024-03-08T11:01:22;58.13;;;24.33;;
40863;SDS011;26582;47.524;19.012;2024-03-08T11:03:49;52.53;;;23.75;;
40863;SDS011;26582;47.524;19.012;2024-03-08T11:06:22;54.85;;;22.98;;
40863;SDS011;26582;47.524;19.012;2024-03-08T11:08:50;51.38;;;22.88;;
40863;SDS011;26582;47.524;19.012;2024-03-08T11:11:23;55.72;;;24.65;;
40863;SDS011;26582;47.524;19.012;2024-03-08T11:13:55;49.75;;;21.83;;
40863;SDS011;26582;47.524;19.012;2024-03-08T11:16:38;53.20;;;21.65;;
40863;SDS011;26582;47.524;19.012;2024-03-08T11:21:59;53.20;;;21.80;;
40863;SDS011;26582;47.524;19.012;2024-03-08T11:24:36;57.03;;;22.70;;
40863;SDS011;26582;47.524;19.012;2024-03-08T11:27:05;53.30;;;22.88;;
40863;SDS011;26582;47.524;19.012;2024-03-08T11:29:38;48.97;;;22.27;;
40863;SDS011;26582;47.524;19.012;2024-03-08T11:32:09;53.40;;;23.55;;
40863;SDS011;26582;47.524;19.012;2024-03-08T11:34:37;59.45;;;23.73;;
40863;SDS011;26582;47.524;19.012;2024-03-08T11:37:06;49.17;;;22.80;;
40863;SDS011;26582;47.524;19.012;2024-03-08T11:39:38;46.22;;;20.75;;
40863;SDS011;26582;47.524;19.012;2024-03-08T11:42:05;49.25;;;22.75;;
40863;SDS011;26582;47.524;19.012;2024-03-08T11:44:33;48.40;;;20.63;;
40863;SDS011;26582;47.524;19.012;2024-03-08T11:47:01;48.25;;;20.92;;
40863;SDS011;26582;47.524;19.012;2024-03-08T11:49:31;44.17;;;19.42;;
40863;SDS011;26582;47.524;19.012;2024-03-08T11:51:59;44.42;;;21.15;;
40863;SDS011;26582;47.524;19.012;2024-03-08T11:54:27;41.75;;;20.90;;
40863;SDS011;26582;47.524;19.012;2024-03-08T11:56:55;49.88;;;21.20;;
40863;SDS011;26582;47.524;19.012;2024-03-08T11:59:26;45.70;;;21.05;;
40863;SDS011;26582;47.524;19.012;2024-03-08T12:02:02;50.17;;;20.10;;
40863;SDS011;26582;47.524;19.012;2024-03-08T12:04:30;43.22;;;19.77;;
40863;SDS011;26582;47.524;19.012;2024-03-08T12:06:59;39.15;;;19.55;;
40863;SDS011;26582;47.524;19.012;2024-03-08T12:09:27;42.08;;;19.02;;
40863;SDS011;26582;47.524;19.012;2024-03-08T12:11:54;44.38;;;19.60;;
40863;SDS011;26582;47.524;19.012;2024-03-08T12:14:21;52.97;;;21.65;;
40863;SDS011;26582;47.524;19.012;2024-03-08T12:16:50;54.58;;;23.45;;
40863;SDS011;26582;47.524;19.012;2024-03-08T12:19:18;54.03;;;22.48;;
40863;SDS011;26582;47.524;19.012;2024-03-08T12:21:45;96.65;;;40.83;;
40863;SDS011;26582;47.524;19.012;2024-03-08T12:24:14;48.47;;;22.33;;
40863;SDS011;26582;47.524;19.012;2024-03-08T12:26:45;49.35;;;20.88;;
40863;SDS011;26582;47.524;19.012;2024-03-08T12:29:14;44.28;;;20.33;;
40863;SDS011;26582;47.524;19.012;2024-03-08T12:31:42;42.97;;;20.77;;
40863;SDS011;26582;47.524;19.012;2024-03-08T12:34:10;45.05;;;20.90;;
40863;SDS011;26582;47.524;19.012;2024-03-08T12:36:43;45.67;;;20.85;;
40863;SDS011;26582;47.524;19.012;2024-03-08T12:39:12;44.58;;;21.70;;
40863;SDS011;26582;47.524;19.012;2024-03-08T12:41:41;41.78;;;19.55;;
40863;SDS011;26582;47.524;19.012;2024-03-08T12:44:09;45.80;;;21.25;;
40863;SDS011;26582;47.524;19.012;2024-03-08T12:46:37;46.95;;;21.40;;
40863;SDS011;26582;47.524;19.012;2024-03-08T12:49:07;43.92;;;21.90;;
40863;SDS011;26582;47.524;19.012;2024-03-08T12:51:35;43.30;;;22.65;;
40863;SDS011;26582;47.524;19.012;2024-03-08T12:54:04;45.22;;;21.17;;
40863;SDS011;26582;47.524;19.012;2024-03-08T12:56:32;45.47;;;20.77;;
40863;SDS011;26582;47.524;19.012;2024-03-08T12:59:02;46.35;;;20.42;;
40863;SDS011;26582;47.524;19.012;2024-03-08T13:01:31;44.83;;;20.98;;
40863;SDS011;26582;47.524;19.012;2024-03-08T13:03:58;47.28;;;20.52;;
40863;SDS011;26582;47.524;19.012;2024-03-08T13:06:25;46.85;;;20.13;;
40863;SDS011;26582;47.524;19.012;2024-03-08T13:08:54;41.60;;;20.27;;
40863;SDS011;26582;47.524;19.012;2024-03-08T13:11:21;37.80;;;19.95;;
40863;SDS011;26582;47.524;19.012;2024-03-08T13:13:48;40.40;;;20.52;;
40863;SDS011;26582;47.524;19.012;2024-03-08T13:16:15;45.22;;;20.88;;
40863;SDS011;26582;47.524;19.012;2024-03-08T13:18:45;51.95;;;21.40;;
40863;SDS011;26582;47.524;19.012;2024-03-08T13:23:45;50.03;;;23.83;;
40863;SDS011;26582;47.524;19.012;2024-03-08T13:28:41;53.85;;;22.92;;
40863;SDS011;26582;47.524;19.012;2024-03-08T13:31:08;52.88;;;22.52;;
40863;SDS011;26582;47.524;19.012;2024-03-08T13:33:35;49.35;;;22.05;;
40863;SDS011;26582;47.524;19.012;2024-03-08T13:36:05;51.70;;;23.85;;
40863;SDS011;26582;47.524;19.012;2024-03-08T13:38:39;52.05;;;21.67;;
40863;SDS011;26582;47.524;19.012;2024-03-08T13:41:07;66.53;;;28.42;;
40863;SDS011;26582;47.524;19.012;2024-03-08T13:43:34;42.28;;;21.45;;
40863;SDS011;26582;47.524;19.012;2024-03-08T13:46:02;55.65;;;27.95;;
40863;SDS011;26582;47.524;19.012;2024-03-08T13:48:29;43.88;;;21.85;;
40863;SDS011;26582;47.524;19.012;2024-03-08T13:50:56;41.10;;;20.38;;
40863;SDS011;26582;47.524;19.012;2024-03-08T13:53:24;43.90;;;20.60;;
40863;SDS011;26582;47.524;19.012;2024-03-08T13:55:51;40.58;;;20.70;;
40863;SDS011;26582;47.524;19.012;2024-03-08T13:58:18;44.63;;;20.85;;
40863;SDS011;26582;47.524;19.012;2024-03-08T14:00:45;45.65;;;21.23;;
40863;SDS011;26582;47.524;19.012;2024-03-08T14:03:12;44.83;;;20.92;;
40863;SDS011;26582;47.524;19.012;2024-03-08T14:05:39;46.85;;;20.90;;
40863;SDS011;26582;47.524;19.012;2024-03-08T14:08:07;58.25;;;27.67;;
40863;SDS011;26582;47.524;19.012;2024-03-08T14:10:35;66.00;;;31.40;;
40863;SDS011;26582;47.524;19.012;2024-03-08T14:13:03;47.42;;;23.45;;
40863;SDS011;26582;47.524;19.012;2024-03-08T14:15:32;50.70;;;23.58;;
40863;SDS011;26582;47.524;19.012;2024-03-08T14:17:58;48.42;;;24.25;;
40863;SDS011;26582;47.524;19.012;2024-03-08T14:20:26;43.85;;;22.00;;
40863;SDS011;26582;47.524;19.012;2024-03-08T14:22:53;38.63;;;20.05;;